createdAt,value
2022-08-31T00:08:14.389Z,13.10
2022-08-31T00:11:55.929Z,13.80
2022-08-31T00:15:13.806Z,13.70
2022-08-31T00:44:56.156Z,13.40
2022-08-31T00:48:36.490Z,12.60
2022-08-31T00:52:33.202Z,12.80
2022-08-31T00:56:23.158Z,13.40
2022-08-31T00:59:51.973Z,12.70
2022-08-31T01:03:45.106Z,13.30
2022-08-31T01:07:27.420Z,13.00
2022-08-31T01:52:14.103Z,10.10
2022-08-31T01:56:04.912Z,10.80
2022-08-31T01:59:57.417Z,10.60
2022-08-31T02:23:30.665Z,9.70
2022-08-31T02:27:23.329Z,9.80
2022-08-31T02:31:18.608Z,9.90
2022-08-31T02:34:54.147Z,10.10
2022-08-31T02:38:47.016Z,9.20
2022-08-31T03:01:28.511Z,9.70
2022-08-31T03:05:11.924Z,10.50
2022-08-31T03:09:03.619Z,9.80
2022-08-31T03:12:56.162Z,9.70
2022-08-31T03:16:39.689Z,8.90
2022-08-31T03:35:49.454Z,8.60
2022-08-31T03:39:40.770Z,9.20
2022-08-31T03:43:31.966Z,8.70
2022-08-31T03:47:17.903Z,9.70
2022-08-31T04:14:01.750Z,9.90
2022-08-31T04:18:02.567Z,9.00
2022-08-31T04:37:51.304Z,8.70
2022-08-31T04:41:40.486Z,8.10
2022-08-31T04:45:26.353Z,8.50
2022-08-31T05:08:38.698Z,9.70
2022-08-31T05:12:30.023Z,9.40
2022-08-31T05:35:07.428Z,10.10
2022-08-31T05:39:01.058Z,9.30
2022-08-31T05:46:29.011Z,9.90
2022-08-31T06:09:23.061Z,8.10
2022-08-31T06:12:32.858Z,8.90
2022-08-31T06:15:58.454Z,8.80
2022-08-31T06:19:07.777Z,8.50
2022-08-31T06:22:08.312Z,8.10
2022-08-31T06:25:59.776Z,8.70
2022-08-31T06:29:53.569Z,9.00
2022-08-31T06:33:05.101Z,8.90
2022-08-31T06:36:35.144Z,8.70
2022-08-31T06:40:30.444Z,7.50
2022-08-31T06:44:06.209Z,7.50
2022-08-31T06:54:33.077Z,8.60
2022-08-31T07:05:30.459Z,8.00
2022-08-31T07:08:43.516Z,8.10
2022-08-31T07:19:07.936Z,7.80
2022-08-31T07:21:59.152Z,7.10
2022-08-31T07:28:44.271Z,8.00
2022-08-31T07:31:59.638Z,8.00
2022-08-31T07:35:00.947Z,7.80
2022-08-31T07:38:02.537Z,7.60
2022-08-31T07:41:14.411Z,8.10
2022-08-31T07:44:21.196Z,7.40
2022-08-31T07:47:12.079Z,8.10
2022-08-31T07:50:16.549Z,8.00
2022-08-31T07:53:17.094Z,7.60
2022-08-31T07:56:56.945Z,7.40
2022-08-31T08:00:05.559Z,7.50
2022-08-31T08:02:52.978Z,7.70
2022-08-31T08:05:45.125Z,7.40
2022-08-31T08:09:12.690Z,7.20
2022-08-31T08:12:22.515Z,7.50
2022-08-31T08:15:36.453Z,6.60
2022-08-31T08:19:13.122Z,7.00
2022-08-31T08:21:55.603Z,6.10
2022-08-31T08:24:38.640Z,6.10
2022-08-31T08:28:39.725Z,6.00
2022-08-31T08:31:29.380Z,6.70
2022-08-31T08:34:19.560Z,6.10
2022-08-31T08:37:11.547Z,6.60
2022-08-31T08:40:05.044Z,6.30
2022-08-31T08:43:00.348Z,7.10
2022-08-31T08:45:47.834Z,6.90
2022-08-31T08:48:29.737Z,6.30
2022-08-31T08:51:28.557Z,5.80
2022-08-31T08:54:23.822Z,6.40
2022-08-31T08:57:20.322Z,6.50
2022-08-31T09:00:06.938Z,7.00
2022-08-31T09:02:48.672Z,6.70
2022-08-31T09:05:43.834Z,6.60
2022-08-31T09:09:09.047Z,6.20
2022-08-31T09:12:05.614Z,6.40
2022-08-31T09:14:51.602Z,6.60
2022-08-31T09:17:35.868Z,6.40
2022-08-31T09:20:28.741Z,6.10
2022-08-31T09:23:01.839Z,5.80
2022-08-31T09:25:52.707Z,6.60
2022-08-31T09:29:17.497Z,9.60
2022-08-31T09:31:49.899Z,7.70
2022-08-31T09:34:48.597Z,5.80
2022-08-31T09:38:10.621Z,6.40
2022-08-31T09:40:54.048Z,5.80
2022-08-31T09:43:45.297Z,5.60
2022-08-31T09:46:36.520Z,5.80
2022-08-31T09:49:39.606Z,6.10
2022-08-31T09:52:43.009Z,5.60
2022-08-31T09:55:25.682Z,5.20
2022-08-31T09:58:27.220Z,5.30
2022-08-31T10:01:36.374Z,5.10
2022-08-31T10:04:38.529Z,5.50
2022-08-31T10:07:49.409Z,5.20
2022-08-31T10:10:36.878Z,5.80
2022-08-31T10:13:58.558Z,5.00
2022-08-31T10:17:00.827Z,5.00
2022-08-31T10:20:10.619Z,5.20
2022-08-31T10:22:57.314Z,5.10
2022-08-31T10:25:43.493Z,5.30
2022-08-31T10:28:52.160Z,5.60
2022-08-31T10:31:43.617Z,5.00
2022-08-31T10:34:54.074Z,5.20
2022-08-31T10:37:53.953Z,5.30
2022-08-31T10:41:04.164Z,5.30
2022-08-31T10:43:46.359Z,4.90
2022-08-31T10:46:17.270Z,4.40
2022-08-31T10:48:58.305Z,4.40
2022-08-31T10:51:38.769Z,4.10
2022-08-31T10:54:27.956Z,4.20
2022-08-31T10:57:22.355Z,4.00
2022-08-31T11:00:38.368Z,4.00
2022-08-31T11:03:23.050Z,3.60
2022-08-31T11:06:09.722Z,3.50
2022-08-31T11:09:04.505Z,4.30
2022-08-31T11:11:46.152Z,4.00
2022-08-31T11:14:33.737Z,4.20
2022-08-31T11:17:29.307Z,3.50
2022-08-31T11:20:22.642Z,3.20
2022-08-31T11:23:06.056Z,3.40
2022-08-31T11:26:19.279Z,2.90
2022-08-31T11:28:56.435Z,3.10
2022-08-31T11:34:17.403Z,3.10
2022-08-31T11:36:51.552Z,2.90
2022-08-31T11:39:37.216Z,3.40
2022-08-31T11:42:14.464Z,3.20
2022-08-31T11:47:30.525Z,2.90
2022-08-31T11:50:06.758Z,4.90
2022-08-31T11:52:41.410Z,4.90
2022-08-31T11:55:24.513Z,5.10
2022-08-31T11:58:20.089Z,5.70
2022-08-31T12:01:06.951Z,6.20
2022-08-31T12:03:56.123Z,5.80
2022-08-31T12:06:30.035Z,6.80
2022-08-31T12:11:52.317Z,6.40
2022-08-31T12:14:35.794Z,6.70
2022-08-31T12:17:47.188Z,6.40
2022-08-31T12:21:25.116Z,6.30
2022-08-31T12:24:18.902Z,6.00
2022-08-31T12:27:18.245Z,6.10
2022-08-31T12:30:14.277Z,5.00
2022-08-31T12:32:49.996Z,5.40
2022-08-31T12:35:25.594Z,4.60
2022-08-31T12:38:23.010Z,5.70
2022-08-31T12:41:10.356Z,5.10
2022-08-31T12:46:24.474Z,3.90
2022-08-31T12:49:33.787Z,3.90
2022-08-31T12:52:04.563Z,3.90
2022-08-31T12:55:01.181Z,3.90
2022-08-31T13:00:31.082Z,3.40
2022-08-31T13:03:21.992Z,3.50
2022-08-31T13:06:13.933Z,3.50
2022-08-31T13:08:46.283Z,3.50
2022-08-31T13:11:51.424Z,3.60
2022-08-31T13:14:25.464Z,3.10
2022-08-31T13:17:12.504Z,3.10
2022-08-31T13:19:51.049Z,3.40
2022-08-31T13:22:36.099Z,3.20
2022-08-31T13:25:51.046Z,3.80
2022-08-31T13:28:29.316Z,3.80
2022-08-31T13:31:09.543Z,3.40
2022-08-31T13:33:42.977Z,3.80
2022-08-31T13:36:38.526Z,3.80
2022-08-31T13:39:43.994Z,3.70
2022-08-31T13:42:42.011Z,3.80
2022-08-31T13:45:32.626Z,4.20
2022-08-31T13:48:12.923Z,3.20
2022-08-31T13:51:16.832Z,4.00
2022-08-31T13:54:05.778Z,3.40
2022-08-31T13:56:58.965Z,3.80
2022-08-31T14:00:19.943Z,3.50
2022-08-31T14:02:54.366Z,3.60
2022-08-31T14:05:41.465Z,3.80
2022-08-31T14:08:28.077Z,3.70
2022-08-31T14:11:29.902Z,3.90
2022-08-31T14:14:36.543Z,3.40
2022-08-31T14:17:06.894Z,3.80
2022-08-31T14:19:55.975Z,3.20
2022-08-31T14:22:57.466Z,3.40
2022-08-31T14:25:38.397Z,3.50
2022-08-31T14:28:33.844Z,3.20
2022-08-31T14:31:13.162Z,3.60
2022-08-31T14:33:44.354Z,3.80
2022-08-31T14:36:17.681Z,4.00
2022-08-31T14:38:59.556Z,4.00
2022-08-31T14:41:53.412Z,3.70
2022-08-31T14:44:26.227Z,3.60
2022-08-31T14:46:56.798Z,3.30
2022-08-31T14:49:27.613Z,3.30
2022-08-31T14:52:07.043Z,2.70
2022-08-31T14:54:38.022Z,2.80
2022-08-31T14:57:18.758Z,2.60
2022-08-31T15:00:00.159Z,3.20
2022-08-31T15:02:35.878Z,2.80
2022-08-31T15:05:09.596Z,2.70
2022-08-31T15:07:42.940Z,3.10
2022-08-31T15:10:13.357Z,3.10
2022-08-31T15:12:43.512Z,3.00
2022-08-31T15:15:19.365Z,2.90
2022-08-31T15:17:51.950Z,3.20
2022-08-31T15:20:24.098Z,3.10
2022-08-31T15:22:54.270Z,3.00
2022-08-31T15:25:27.164Z,2.80
2022-08-31T15:27:58.426Z,3.10
2022-08-31T15:30:28.910Z,3.30
2022-08-31T15:32:59.967Z,3.20
2022-08-31T15:35:32.167Z,3.10
2022-08-31T15:38:07.109Z,3.20
2022-08-31T15:40:40.286Z,3.00
2022-08-31T15:43:12.821Z,3.40
2022-08-31T15:45:41.868Z,3.00
2022-08-31T15:48:37.023Z,3.30
2022-08-31T15:51:28.564Z,3.00
2022-08-31T15:54:21.114Z,3.50
2022-08-31T15:56:53.553Z,3.40
2022-08-31T15:59:23.923Z,3.00
2022-08-31T16:01:54.052Z,3.30
2022-08-31T16:04:24.493Z,3.60
2022-08-31T16:06:55.848Z,3.50
2022-08-31T16:09:26.188Z,4.00
2022-08-31T16:11:55.114Z,4.30
2022-08-31T16:14:41.679Z,5.00
2022-08-31T16:17:19.351Z,5.10
2022-08-31T16:19:49.421Z,4.10
2022-08-31T16:22:21.266Z,4.00
2022-08-31T16:24:53.960Z,4.90
2022-08-31T16:27:26.910Z,4.60
2022-08-31T16:30:01.264Z,4.70
2022-08-31T16:32:45.739Z,4.40
2022-08-31T16:35:45.215Z,4.80
2022-08-31T16:38:18.390Z,5.00
2022-08-31T16:41:19.292Z,5.50
2022-08-31T16:44:20.530Z,5.10
2022-08-31T16:47:02.313Z,5.10
2022-08-31T16:49:46.151Z,4.90
2022-08-31T16:52:46.355Z,4.70
2022-08-31T16:55:31.982Z,5.10
2022-08-31T16:58:09.123Z,5.50
2022-08-31T17:01:13.102Z,4.90
2022-08-31T17:03:59.275Z,4.50
2022-08-31T17:07:14.777Z,5.00
2022-08-31T17:10:07.490Z,4.80
2022-08-31T17:12:55.271Z,5.60
2022-08-31T17:15:45.641Z,4.40
2022-08-31T17:18:37.530Z,4.20
2022-08-31T17:22:13.910Z,5.00
2022-08-31T17:25:08.364Z,5.10
2022-08-31T17:28:07.658Z,5.50
2022-08-31T17:31:13.206Z,4.80
2022-08-31T17:33:49.607Z,4.50
2022-08-31T17:36:44.436Z,5.10
2022-08-31T17:39:53.503Z,5.00
2022-08-31T17:42:50.673Z,4.80
2022-08-31T17:46:07.584Z,5.10
2022-08-31T17:49:28.214Z,5.50
2022-08-31T17:52:40.046Z,4.70
2022-08-31T17:55:32.827Z,4.70
2022-08-31T17:59:33.234Z,5.20
2022-08-31T18:03:24.861Z,5.10
2022-08-31T18:06:59.677Z,4.90
2022-08-31T18:10:54.260Z,4.80
2022-08-31T18:14:19.767Z,5.10
2022-08-31T18:17:46.623Z,4.80
2022-08-31T18:40:23.618Z,5.20
2022-08-31T18:44:13.196Z,4.70
2022-08-31T18:51:36.961Z,5.80
2022-08-31T19:14:07.325Z,7.80
2022-08-31T19:18:01.055Z,8.50
2022-08-31T19:33:11.233Z,7.70
2022-08-31T19:36:55.377Z,6.40
2022-08-31T19:40:05.686Z,7.30
2022-08-31T19:43:54.878Z,7.00
2022-08-31T19:47:29.908Z,6.80
2022-08-31T19:50:15.839Z,6.10
2022-08-31T19:53:50.780Z,6.40
2022-08-31T19:56:58.397Z,6.10
2022-08-31T20:00:30.653Z,5.60
2022-08-31T20:04:01.829Z,5.20
2022-08-31T20:40:03.533Z,6.30
2022-08-31T20:43:21.841Z,6.40
2022-08-31T20:46:58.417Z,6.10
2022-08-31T20:50:26.665Z,5.50
2022-08-31T20:54:02.910Z,5.50
2022-08-31T20:57:18.149Z,5.20
2022-08-31T21:00:42.190Z,5.30
2022-08-31T21:04:06.474Z,6.20
2022-08-31T21:07:34.000Z,6.00
2022-08-31T21:11:32.693Z,6.50
2022-08-31T21:14:37.956Z,5.70
2022-08-31T21:58:46.142Z,6.90
2022-08-31T22:02:37.704Z,6.90
2022-08-31T22:06:31.173Z,7.00
2022-08-31T22:21:49.825Z,8.60
2022-08-31T22:25:22.867Z,8.30
2022-08-31T22:29:06.316Z,7.80
2022-08-31T22:44:37.340Z,8.50
2022-08-31T22:48:29.082Z,7.10
2022-08-31T22:52:21.066Z,7.50
2022-08-31T22:56:12.449Z,6.80
2022-08-31T23:15:47.496Z,6.90
2022-08-31T23:19:44.839Z,6.70
2022-08-31T23:23:36.624Z,6.50
2022-08-31T23:27:29.566Z,6.60
2022-08-31T23:46:45.386Z,7.60
2022-08-31T23:50:23.315Z,7.20
2022-08-31T23:54:17.728Z,6.60
2022-08-31T23:58:03.475Z,6.80
